EDDM/MUC METAR and TAF weather

Enter ICAO airport designator
Station Type Date Time Source
EDDM METAR 2018/01/23 01:20 UTC NOAA

EDDM 230120Z 26006KT 9999 FEW020 BKN055 03/02 Q1019 R88/290095 NOSIG


Station Type Date Time Source
EDDM Decoded METAR 2018/01/23 01:20 UTC NOAA

Munchen, Germany (EDDM) 48-21N 011-47E
Jan 22, 2018 - 08:20 PM EST / 2018.01.23 0120 UTC
Wind: from the W (260 degrees) at 7 MPH (6 KT):0
Visibility: greater than 7 mile(s):0
Sky conditions: mostly cloudy
Temperature: 37 F (3 C)
Dew Point: 35 F (2 C)
Relative Humidity: 93%
Pressure (altimeter): 30.09 in. Hg (1019 hPa)
ob: EDDM 230120Z 26006KT 9999 FEW020 BKN055 03/02 Q1019 R88/290095 NOSIG
cycle: 1

Station Type Date Time Source
EDDM TAF 2018/01/22 18:27 UTC NOAA

TAF EDDM 221700Z 2218/2324 25005KT 9000 BKN025
BECMG 2218/2220 26010KT PROB30
TEMPO 2218/2221 4000 RA BKN012
TEMPO 2221/2308 4000 -DZRA BKN008
BECMG 2315/2317 23005KT


Example: see airport list